Time,TemperatureF,DewpointF,PressureIn,WindDirection,WindDirectionDegrees,WindSpeedMPH,WindSpeedGustMPH,Humidity,HourlyPrecipIn,Conditions,Clouds,dailyrainin,SoftwareType,DateUTC
2013-02-03 00:00:00,22.3,21.1,29.98,East,82,0.0,0.0,95,0.00,,---,0.00,VWS V14.01,2013-02-03 05:00:00,
2013-02-03 00:01:00,21.7,20.2,30.01,East,82,0.0,0.0,94,0.00,,---,0.00,VWS V14.01,2013-02-03 05:01:00,
2013-02-03 00:02:00,21.7,20.2,30.01,East,82,0.0,0.0,94,0.00,,---,0.00,VWS V14.01,2013-02-03 05:02:00,
2013-02-03 00:07:00,21.9,20.7,30.00,East,82,0.0,0.0,95,0.00,,---,0.00,VWS V14.01,2013-02-03 05:07:00,
2013-02-03 00:10:00,22.7,21.5,29.98,East,82,0.0,0.0,95,0.00,,---,0.00,VWS V14.01,2013-02-03 05:10:00,
2013-02-03 00:12:00,22.1,20.6,30.00,East,82,0.0,0.0,94,0.00,,---,0.00,VWS V14.01,2013-02-03 05:12:00,
2013-02-03 00:17:00,22.3,21.1,30.00,East,82,0.0,0.0,95,0.00,,---,0.00,VWS V14.01,2013-02-03 05:17:00,
2013-02-03 00:20:00,22.9,21.7,29.97,East,82,0.0,0.0,95,0.00,,---,0.00,VWS V14.01,2013-02-03 05:20:00,
2013-02-03 00:22:00,22.3,20.8,30.00,East,82,0.0,0.0,94,0.00,,---,0.00,VWS V14.01,2013-02-03 05:22:00,
2013-02-03 00:27:00,22.1,20.6,30.00,East,82,0.0,0.0,94,0.00,,---,0.00,VWS V14.01,2013-02-03 05:27:00,
2013-02-03 00:30:00,22.7,21.2,29.97,NE,37,0.0,1.0,94,0.00,,---,0.00,VWS V14.01,2013-02-03 05:30:00,
2013-02-03 00:32:00,22.0,20.5,29.99,East,82,0.0,0.0,94,0.00,,---,0.00,VWS V14.01,2013-02-03 05:32:00,
2013-02-03 00:37:00,22.0,20.5,29.99,East,82,0.0,0.0,94,0.00,,---,0.00,VWS V14.01,2013-02-03 05:37:00,
2013-02-03 00:40:00,22.8,21.6,29.97,NNE,21,0.0,1.0,95,0.00,,---,0.00,VWS V14.01,2013-02-03 05:40:00,
2013-02-03 00:42:00,22.0,20.5,29.99,East,82,0.0,0.0,94,0.00,,---,0.00,VWS V14.01,2013-02-03 05:42:00,
2013-02-03 00:47:00,22.1,20.9,29.99,East,82,0.0,0.0,95,0.00,,---,0.00,VWS V14.01,2013-02-03 05:47:00,
2013-02-03 00:50:00,22.4,20.9,29.97,NNE,22,0.0,0.0,94,0.00,,---,0.00,VWS V14.01,2013-02-03 05:50:00,
2013-02-03 00:52:00,22.2,21.0,29.99,East,82,0.0,0.0,95,0.00,,---,0.00,VWS V14.01,2013-02-03 05:52:00,
2013-02-03 00:57:00,22.3,21.1,29.98,East,82,0.0,0.0,95,0.00,,---,0.00,VWS V14.01,2013-02-03 05:57:00,
2013-02-03 01:00:00,22.3,20.8,29.96,NNE,22,0.0,1.0,94,0.00,,---,0.00,VWS V14.01,2013-02-03 06:00:00,
2013-02-03 01:02:00,22.4,21.2,29.98,East,82,0.0,0.0,95,0.00,,---,0.00,VWS V14.01,2013-02-03 06:02:00,
2013-02-03 01:07:00,22.6,21.4,29.98,East,82,0.0,0.0,95,0.00,,---,0.00,VWS V14.01,2013-02-03 06:07:00,
2013-02-03 01:10:00,21.6,20.1,29.96,NNE,21,0.0,0.0,94,0.00,,---,0.00,VWS V14.01,2013-02-03 06:10:00,
2013-02-03 01:12:00,22.8,21.6,29.97,East,82,0.0,0.0,95,0.00,,---,0.00,VWS V14.01,2013-02-03 06:12:00,
2013-02-03 01:17:00,22.9,21.7,29.98,East,82,0.0,0.0,95,0.00,,---,0.00,VWS V14.01,2013-02-03 06:17:00,
2013-02-03 01:20:00,21.5,20.0,29.95,NNE,21,0.0,0.0,94,0.00,,---,0.00,VWS V14.01,2013-02-03 06:20:00,
2013-02-03 01:22:00,22.9,21.7,29.97,East,82,0.0,0.0,95,0.00,,---,0.00,VWS V14.01,2013-02-03 06:22:00,
2013-02-03 01:27:00,22.8,21.3,29.97,East,82,0.0,0.0,94,0.00,,---,0.00,VWS V14.01,2013-02-03 06:27:00,
2013-02-03 01:30:00,21.7,20.5,29.95,NNE,21,0.0,0.0,95,0.00,,---,0.00,VWS V14.01,2013-02-03 06:30:00,
2013-02-03 01:32:00,22.8,21.3,29.97,NE,37,0.0,0.0,94,0.00,,---,0.00,VWS V14.01,2013-02-03 06:32:00,
2013-02-03 01:37:00,22.8,21.6,29.97,NNE,22,0.0,1.0,95,0.00,,---,0.00,VWS V14.01,2013-02-03 06:37:00,
2013-02-03 01:40:00,21.5,20.3,29.94,NNE,22,0.0,0.0,95,0.00,,---,0.00,VWS V14.01,2013-02-03 06:40:00,
2013-02-03 01:42:00,22.8,21.3,29.97,NNE,22,0.0,0.0,94,0.00,,---,0.00,VWS V14.01,2013-02-03 06:42:00,
2013-02-03 01:47:00,22.6,21.1,29.97,NNE,22,0.0,0.0,94,0.00,,---,0.00,VWS V14.01,2013-02-03 06:47:00,
2013-02-03 01:50:00,21.7,20.5,29.94,NNE,21,0.0,0.0,95,0.00,,---,0.00,VWS V14.01,2013-02-03 06:50:00,
2013-02-03 01:52:00,22.3,20.8,29.96,NNE,22,0.0,0.0,94,0.00,,---,0.00,VWS V14.01,2013-02-03 06:52:00,
2013-02-03 01:57:00,22.3,20.8,29.96,NNE,22,0.0,1.0,94,0.00,,---,0.00,VWS V14.01,2013-02-03 06:57:00,
2013-02-03 02:00:00,21.7,20.5,29.94,NNE,21,0.0,0.0,95,0.00,,---,0.00,VWS V14.01,2013-02-03 07:00:00,
2013-02-03 02:02:00,22.2,20.7,29.96,NNE,22,0.0,0.0,94,0.00,,---,0.00,VWS V14.01,2013-02-03 07:02:00,
2013-02-03 02:07:00,21.8,20.3,29.96,NNE,22,0.0,0.0,94,0.00,,---,0.00,VWS V14.01,2013-02-03 07:07:00,
2013-02-03 02:10:00,22.1,20.9,29.93,ESE,108,0.0,1.0,95,0.00,,---,0.00,VWS V14.01,2013-02-03 07:10:00,
2013-02-03 02:12:00,21.5,20.0,29.96,NNE,22,0.0,0.0,94,0.00,,---,0.00,VWS V14.01,2013-02-03 07:12:00,
2013-02-03 02:17:00,21.5,20.0,29.95,NNE,21,0.0,0.0,94,0.00,,---,0.00,VWS V14.01,2013-02-03 07:17:00,
2013-02-03 02:20:00,22.3,21.1,29.93,WSW,249,0.0,1.0,95,0.00,,---,0.00,VWS V14.01,2013-02-03 07:20:00,
2013-02-03 02:22:00,21.6,20.4,29.95,NNE,21,0.0,0.0,95,0.00,,---,0.00,VWS V14.01,2013-02-03 07:22:00,
2013-02-03 02:27:00,21.7,20.5,29.95,NNE,22,0.0,0.0,95,0.00,,---,0.00,VWS V14.01,2013-02-03 07:27:00,
2013-02-03 02:30:00,22.7,21.5,29.92,WSW,249,0.0,0.0,95,0.00,,---,0.00,VWS V14.01,2013-02-03 07:30:00,
2013-02-03 02:32:00,21.6,20.4,29.95,NNE,21,0.0,0.0,95,0.00,,---,0.00,VWS V14.01,2013-02-03 07:32:00,
2013-02-03 02:37:00,21.5,20.0,29.94,NNE,22,0.0,0.0,94,0.00,,---,0.00,VWS V14.01,2013-02-03 07:37:00,
2013-02-03 02:40:00,23.1,21.9,29.92,WSW,256,0.0,1.0,95,0.00,,---,0.00,VWS V14.01,2013-02-03 07:40:00,
2013-02-03 02:42:00,21.5,20.3,29.94,NNE,21,0.0,0.0,95,0.00,,---,0.00,VWS V14.01,2013-02-03 07:42:00,
2013-02-03 02:47:00,21.6,20.4,29.94,NNE,22,0.0,0.0,95,0.00,,---,0.00,VWS V14.01,2013-02-03 07:47:00,
2013-02-03 02:50:00,23.4,22.2,29.92,WSW,255,0.0,0.0,95,0.00,,---,0.00,VWS V14.01,2013-02-03 07:50:00,
2013-02-03 02:52:00,21.7,20.5,29.94,NNE,21,0.0,0.0,95,0.00,,---,0.00,VWS V14.01,2013-02-03 07:52:00,
2013-02-03 02:57:00,21.6,20.4,29.94,NNE,21,0.0,0.0,95,0.00,,---,0.00,VWS V14.01,2013-02-03 07:57:00,
2013-02-03 03:00:00,23.7,22.5,29.92,WSW,255,0.0,0.0,95,0.00,,---,0.00,VWS V14.01,2013-02-03 08:00:00,
2013-02-03 03:02:00,21.8,20.6,29.93,NNE,22,0.0,0.0,95,0.00,,---,0.00,VWS V14.01,2013-02-03 08:02:00,
2013-02-03 03:07:00,22.0,20.8,29.93,ESE,105,1.0,1.0,95,0.00,,---,0.00,VWS V14.01,2013-02-03 08:07:00,
2013-02-03 03:10:00,23.8,22.6,29.92,WSW,255,0.0,1.0,95,0.00,,---,0.00,VWS V14.01,2013-02-03 08:10:00,
2013-02-03 03:12:00,22.2,21.0,29.93,SSE,147,0.0,1.0,95,0.00,,---,0.00,VWS V14.01,2013-02-03 08:12:00,
2013-02-03 03:17:00,22.3,21.1,29.93,WSW,249,0.0,1.0,95,0.00,,---,0.00,VWS V14.01,2013-02-03 08:17:00,
2013-02-03 03:20:00,23.9,22.7,29.92,WSW,256,0.0,0.0,95,0.00,,---,0.00,VWS V14.01,2013-02-03 08:20:00,
2013-02-03 03:22:00,22.4,21.2,29.93,WSW,249,0.0,0.0,95,0.00,,---,0.00,VWS V14.01,2013-02-03 08:22:00,
2013-02-03 03:27:00,22.7,21.5,29.93,WSW,249,0.0,0.0,95,0.00,,---,0.00,VWS V14.01,2013-02-03 08:27:00,
2013-02-03 03:30:00,24.1,22.9,29.92,NNW,337,1.0,2.0,95,0.00,,---,0.00,VWS V14.01,2013-02-03 08:30:00,
2013-02-03 03:32:00,22.9,21.7,29.93,WSW,249,0.0,1.0,95,0.00,,---,0.00,VWS V14.01,2013-02-03 08:32:00,
2013-02-03 03:37:00,23.1,21.9,29.93,WSW,255,0.0,1.0,95,0.00,,---,0.00,VWS V14.01,2013-02-03 08:37:00,
2013-02-03 03:40:00,24.4,23.2,29.92,North,354,0.0,2.0,95,0.00,,---,0.00,VWS V14.01,2013-02-03 08:40:00,
2013-02-03 03:42:00,23.2,22.0,29.93,WSW,255,0.0,0.0,95,0.00,,---,0.00,VWS V14.01,2013-02-03 08:42:00,
2013-02-03 03:47:00,23.4,22.2,29.93,WSW,255,0.0,0.0,95,0.00,,---,0.00,VWS V14.01,2013-02-03 08:47:00,
2013-02-03 03:50:00,24.6,23.1,29.91,East,92,0.0,1.0,94,0.00,,---,0.00,VWS V14.01,2013-02-03 08:50:00,
2013-02-03 03:52:00,23.5,22.3,29.92,WSW,256,0.0,0.0,95,0.00,,---,0.00,VWS V14.01,2013-02-03 08:52:00,
2013-02-03 03:57:00,23.6,22.4,29.92,WSW,256,0.0,0.0,95,0.00,,---,0.00,VWS V14.01,2013-02-03 08:57:00,
2013-02-03 04:00:00,24.5,23.0,29.91,SE,125,0.0,1.0,94,0.00,,---,0.00,VWS V14.01,2013-02-03 09:00:00,
2013-02-03 04:02:00,23.7,22.5,29.92,WSW,256,0.0,1.0,95,0.00,,---,0.00,VWS V14.01,2013-02-03 09:02:00,
2013-02-03 04:07:00,23.8,22.6,29.92,WSW,256,0.0,1.0,95,0.00,,---,0.00,VWS V14.01,2013-02-03 09:07:00,
2013-02-03 04:10:00,24.3,22.8,29.92,SW,221,0.0,0.0,94,0.00,,---,0.00,VWS V14.01,2013-02-03 09:10:00,
2013-02-03 04:12:00,23.8,22.6,29.92,WSW,255,0.0,0.0,95,0.00,,---,0.00,VWS V14.01,2013-02-03 09:12:00,
2013-02-03 04:17:00,23.9,22.7,29.92,WSW,256,0.0,0.0,95,0.00,,---,0.00,VWS V14.01,2013-02-03 09:17:00,
2013-02-03 04:20:00,24.2,22.7,29.92,SW,215,0.0,1.0,94,0.00,,---,0.00,VWS V14.01,2013-02-03 09:20:00,
2013-02-03 04:22:00,24.0,22.8,29.92,NNW,328,0.0,1.0,95,0.00,,---,0.00,VWS V14.01,2013-02-03 09:22:00,
2013-02-03 04:27:00,24.0,22.8,29.92,NW,322,0.0,2.0,95,0.00,,---,0.00,VWS V14.01,2013-02-03 09:27:00,
2013-02-03 04:30:00,24.0,22.5,29.92,SW,215,0.0,0.0,94,0.00,,---,0.00,VWS V14.01,2013-02-03 09:30:00,
2013-02-03 04:33:00,24.2,23.0,29.92,North,349,1.0,2.0,95,0.00,,---,0.00,VWS V14.01,2013-02-03 09:33:00,
2013-02-03 04:38:00,24.3,23.1,29.92,North,354,0.0,2.0,95,0.00,,---,0.00,VWS V14.01,2013-02-03 09:38:00,
2013-02-03 04:40:00,24.0,22.5,29.92,SW,215,0.0,0.0,94,0.00,,---,0.00,VWS V14.01,2013-02-03 09:40:00,
2013-02-03 04:43:00,24.4,23.2,29.91,East,92,0.0,1.0,95,0.00,,---,0.00,VWS V14.01,2013-02-03 09:43:00,
2013-02-03 04:48:00,24.6,23.4,29.91,East,92,0.0,1.0,95,0.00,,---,0.00,VWS V14.01,2013-02-03 09:48:00,
2013-02-03 04:50:00,24.0,22.5,29.92,SW,215,0.0,0.0,94,0.00,,---,0.00,VWS V14.01,2013-02-03 09:50:00,
2013-02-03 04:53:00,24.6,23.1,29.91,East,96,0.0,1.0,94,0.00,,---,0.00,VWS V14.01,2013-02-03 09:53:00,
2013-02-03 04:58:00,24.5,23.0,29.91,SE,126,0.0,1.0,94,0.00,,---,0.00,VWS V14.01,2013-02-03 09:58:00,
2013-02-03 05:00:00,24.0,22.5,29.92,SW,215,0.0,0.0,94,0.00,,---,0.00,VWS V14.01,2013-02-03 10:00:00,
2013-02-03 05:03:00,24.4,22.9,29.91,SE,125,0.0,0.0,94,0.00,,---,0.00,VWS V14.01,2013-02-03 10:03:00,
2013-02-03 05:08:00,24.4,22.9,29.91,SE,126,0.0,0.0,94,0.00,,---,0.00,VWS V14.01,2013-02-03 10:08:00,
2013-02-03 05:10:00,23.9,22.4,29.92,SW,215,0.0,0.0,94,0.00,,---,0.00,VWS V14.01,2013-02-03 10:10:00,
2013-02-03 05:13:00,24.3,22.8,29.92,SW,215,0.0,1.0,94,0.00,,---,0.00,VWS V14.01,2013-02-03 10:13:00,
2013-02-03 05:18:00,24.2,22.7,29.91,SW,215,0.0,1.0,94,0.00,,---,0.00,VWS V14.01,2013-02-03 10:18:00,
2013-02-03 05:20:00,24.0,22.8,29.92,SW,215,0.0,0.0,95,0.00,,---,0.00,VWS V14.01,2013-02-03 10:20:00,
2013-02-03 05:23:00,24.1,22.6,29.92,SW,216,0.0,0.0,94,0.00,,---,0.00,VWS V14.01,2013-02-03 10:23:00,
2013-02-03 05:28:00,24.0,22.5,29.92,SW,215,0.0,0.0,94,0.00,,---,0.00,VWS V14.01,2013-02-03 10:28:00,
2013-02-03 05:30:00,24.0,22.8,29.92,SW,215,0.0,0.0,95,0.00,,---,0.00,VWS V14.01,2013-02-03 10:30:00,
2013-02-03 05:33:00,24.0,22.5,29.92,SW,215,0.0,0.0,94,0.00,,---,0.00,VWS V14.01,2013-02-03 10:33:00,
2013-02-03 05:38:00,24.0,22.5,29.92,SW,215,0.0,0.0,94,0.00,,---,0.00,VWS V14.01,2013-02-03 10:38:00,
2013-02-03 05:40:00,24.1,22.9,29.92,SW,215,0.0,0.0,95,0.00,,---,0.00,VWS V14.01,2013-02-03 10:40:00,
2013-02-03 05:43:00,24.0,22.5,29.92,SW,215,0.0,0.0,94,0.00,,---,0.00,VWS V14.01,2013-02-03 10:43:00,
2013-02-03 05:48:00,23.9,22.4,29.92,SW,215,0.0,0.0,94,0.00,,---,0.00,VWS V14.01,2013-02-03 10:48:00,
2013-02-03 05:50:00,24.2,23.0,29.93,SW,215,0.0,0.0,95,0.00,,---,0.00,VWS V14.01,2013-02-03 10:50:00,
2013-02-03 05:53:00,24.0,22.5,29.92,SW,216,0.0,0.0,94,0.00,,---,0.00,VWS V14.01,2013-02-03 10:53:00,
2013-02-03 05:58:00,23.9,22.4,29.92,SW,215,0.0,0.0,94,0.00,,---,0.00,VWS V14.01,2013-02-03 10:58:00,
2013-02-03 06:00:00,24.3,23.1,29.93,SW,215,0.0,0.0,95,0.00,,---,0.00,VWS V14.01,2013-02-03 11:00:00,
2013-02-03 06:03:00,24.0,22.5,29.92,SW,215,0.0,0.0,94,0.00,,---,0.00,VWS V14.01,2013-02-03 11:03:00,
2013-02-03 06:08:00,23.9,22.4,29.92,SW,215,0.0,0.0,94,0.00,,---,0.00,VWS V14.01,2013-02-03 11:08:00,
2013-02-03 06:10:00,24.4,23.2,29.93,SW,215,0.0,0.0,95,0.00,,---,0.00,VWS V14.01,2013-02-03 11:10:00,
2013-02-03 06:13:00,24.0,22.5,29.92,SW,215,0.0,0.0,94,0.00,,---,0.00,VWS V14.01,2013-02-03 11:13:00,
2013-02-03 06:18:00,24.0,22.8,29.92,SW,215,0.0,0.0,95,0.00,,---,0.00,VWS V14.01,2013-02-03 11:18:00,
2013-02-03 06:20:00,24.6,23.4,29.93,SW,215,0.0,0.0,95,0.00,,---,0.00,VWS V14.01,2013-02-03 11:20:00,
2013-02-03 06:23:00,24.0,22.8,29.92,SW,216,0.0,0.0,95,0.00,,---,0.00,VWS V14.01,2013-02-03 11:23:00,
2013-02-03 06:28:00,24.0,22.8,29.92,SW,215,0.0,0.0,95,0.00,,---,0.00,VWS V14.01,2013-02-03 11:28:00,
2013-02-03 06:30:00,25.0,23.8,29.93,SW,216,0.0,1.0,95,0.00,,---,0.00,VWS V14.01,2013-02-03 11:30:00,
2013-02-03 06:33:00,24.0,22.8,29.92,SW,215,0.0,0.0,95,0.00,,---,0.00,VWS V14.01,2013-02-03 11:33:00,
2013-02-03 06:38:00,24.1,22.9,29.92,SW,215,0.0,0.0,95,0.00,,---,0.00,VWS V14.01,2013-02-03 11:38:00,
2013-02-03 06:40:00,25.4,24.2,29.93,SW,215,0.0,0.0,95,0.00,,---,0.00,VWS V14.01,2013-02-03 11:40:00,
2013-02-03 06:43:00,24.1,22.9,29.93,SW,215,0.0,0.0,95,0.00,,---,0.00,VWS V14.01,2013-02-03 11:43:00,
2013-02-03 06:48:00,24.2,23.0,29.93,SW,215,0.0,0.0,95,0.00,,---,0.00,VWS V14.01,2013-02-03 11:48:00,
2013-02-03 06:50:00,25.7,24.5,29.94,SW,215,0.0,1.0,95,0.00,,---,0.00,VWS V14.01,2013-02-03 11:50:00,
2013-02-03 06:53:00,24.2,23.0,29.93,SW,215,0.0,0.0,95,0.00,,---,0.00,VWS V14.01,2013-02-03 11:53:00,
2013-02-03 06:58:00,24.3,23.1,29.93,SW,215,0.0,0.0,95,0.00,,---,0.00,VWS V14.01,2013-02-03 11:58:00,
2013-02-03 07:00:00,26.0,24.8,29.94,SW,215,0.0,0.0,95,0.00,,---,0.00,VWS V14.01,2013-02-03 12:00:00,
2013-02-03 07:03:00,24.4,23.2,29.93,SW,215,0.0,0.0,95,0.00,,---,0.00,VWS V14.01,2013-02-03 12:03:00,
2013-02-03 07:08:00,24.4,23.2,29.93,SW,215,0.0,0.0,95,0.00,,---,0.00,VWS V14.01,2013-02-03 12:08:00,
2013-02-03 07:10:00,26.3,25.1,29.94,SW,215,0.0,0.0,95,0.00,,---,0.00,VWS V14.01,2013-02-03 12:10:00,
2013-02-03 07:13:00,24.4,23.2,29.93,SW,215,0.0,0.0,95,0.00,,---,0.00,VWS V14.01,2013-02-03 12:13:00,
2013-02-03 07:18:00,24.6,23.4,29.93,SW,215,0.0,0.0,95,0.00,,---,0.00,VWS V14.01,2013-02-03 12:18:00,
2013-02-03 07:20:00,26.7,25.5,29.94,SE,136,0.0,0.0,95,0.00,,---,0.00,VWS V14.01,2013-02-03 12:20:00,
2013-02-03 07:23:00,24.7,23.5,29.93,SW,215,0.0,0.0,95,0.00,,---,0.00,VWS V14.01,2013-02-03 12:23:00,
2013-02-03 07:28:00,24.9,23.7,29.93,SW,215,0.0,1.0,95,0.00,,---,0.00,VWS V14.01,2013-02-03 12:28:00,
2013-02-03 07:30:00,26.9,25.4,29.94,SE,142,0.0,1.0,94,0.00,,---,0.00,VWS V14.01,2013-02-03 12:30:00,
2013-02-03 07:33:00,25.1,23.9,29.93,SW,215,0.0,0.0,95,0.00,,---,0.00,VWS V14.01,2013-02-03 12:33:00,
2013-02-03 07:38:00,25.3,24.1,29.93,SW,215,0.0,0.0,95,0.00,,---,0.00,VWS V14.01,2013-02-03 12:38:00,
2013-02-03 07:40:00,27.0,25.5,29.94,East,96,2.0,2.0,94,0.00,,---,0.00,VWS V14.01,2013-02-03 12:40:00,
2013-02-03 07:43:00,25.5,24.3,29.93,SW,215,0.0,0.0,95,0.00,,---,0.00,VWS V14.01,2013-02-03 12:43:00,
2013-02-03 07:48:00,25.7,24.5,29.93,SW,215,0.0,1.0,95,0.00,,---,0.00,VWS V14.01,2013-02-03 12:48:00,
2013-02-03 07:50:00,27.2,25.7,29.94,East,98,1.0,3.0,94,0.00,,---,0.00,VWS V14.01,2013-02-03 12:50:00,
2013-02-03 07:53:00,25.9,24.7,29.93,SW,215,0.0,0.0,95,0.00,,---,0.00,VWS V14.01,2013-02-03 12:53:00,
2013-02-03 07:58:00,26.0,24.8,29.93,SW,215,0.0,0.0,95,0.00,,---,0.00,VWS V14.01,2013-02-03 12:58:00,
2013-02-03 08:00:00,27.5,26.0,29.94,ESE,106,0.0,3.0,94,0.00,,---,0.00,VWS V14.01,2013-02-03 13:00:00,
2013-02-03 08:03:00,26.1,24.9,29.94,SW,215,0.0,0.0,95,0.00,,---,0.00,VWS V14.01,2013-02-03 13:03:00,
2013-02-03 08:08:00,26.3,25.1,29.94,SW,215,0.0,0.0,95,0.00,,---,0.00,VWS V14.01,2013-02-03 13:08:00,
2013-02-03 08:10:00,27.7,25.9,29.94,ENE,71,0.0,2.0,93,0.00,,---,0.00,VWS V14.01,2013-02-03 13:10:00,
2013-02-03 08:13:00,26.5,25.3,29.94,SW,215,0.0,0.0,95,0.00,,---,0.00,VWS V14.01,2013-02-03 13:13:00,
2013-02-03 08:18:00,26.6,25.4,29.94,SW,215,0.0,0.0,95,0.00,,---,0.00,VWS V14.01,2013-02-03 13:18:00,
2013-02-03 08:20:00,27.9,26.1,29.94,ESE,106,1.0,3.0,93,0.00,,---,0.00,VWS V14.01,2013-02-03 13:20:00,
2013-02-03 08:23:00,26.8,25.3,29.94,East,90,0.0,1.0,94,0.00,,---,0.00,VWS V14.01,2013-02-03 13:23:00,
2013-02-03 08:29:00,26.9,25.4,29.94,SE,142,0.0,1.0,94,0.00,,---,0.00,VWS V14.01,2013-02-03 13:29:00,
2013-02-03 08:30:00,28.1,26.3,29.93,East,99,0.0,2.0,93,0.00,,---,0.00,VWS V14.01,2013-02-03 13:30:00,
2013-02-03 08:34:00,27.0,25.5,29.94,East,92,0.0,1.0,94,0.00,,---,0.00,VWS V14.01,2013-02-03 13:34:00,
2013-02-03 08:39:00,27.0,25.5,29.94,East,100,1.0,2.0,94,0.00,,---,0.00,VWS V14.01,2013-02-03 13:39:00,
2013-02-03 08:40:00,28.2,26.4,29.93,ESE,114,0.0,1.0,93,0.00,,---,0.00,VWS V14.01,2013-02-03 13:40:00,
2013-02-03 08:44:00,27.1,25.6,29.94,ENE,74,1.0,3.0,94,0.00,,---,0.00,VWS V14.01,2013-02-03 13:44:00,
2013-02-03 08:49:00,27.2,25.7,29.94,ESE,105,1.0,3.0,94,0.00,,---,0.00,VWS V14.01,2013-02-03 13:49:00,
2013-02-03 08:50:00,28.4,26.6,29.94,ESE,104,0.0,2.0,93,0.00,,---,0.00,VWS V14.01,2013-02-03 13:50:00,
2013-02-03 08:54:00,27.3,25.8,29.94,East,80,2.0,2.0,94,0.00,,---,0.00,VWS V14.01,2013-02-03 13:54:00,
2013-02-03 08:59:00,27.5,26.0,29.94,ESE,105,1.0,3.0,94,0.00,,---,0.00,VWS V14.01,2013-02-03 13:59:00,
2013-02-03 09:00:00,28.6,26.6,29.93,ESE,105,0.0,0.0,92,0.00,,---,0.00,VWS V14.01,2013-02-03 14:00:00,
2013-02-03 09:04:00,27.6,26.1,29.94,East,101,0.0,2.0,94,0.00,,---,0.00,VWS V14.01,2013-02-03 14:04:00,
2013-02-03 09:09:00,27.7,25.9,29.94,East,79,0.0,2.0,93,0.00,,---,0.00,VWS V14.01,2013-02-03 14:09:00,
2013-02-03 09:10:00,28.6,26.6,29.93,East,91,0.0,1.0,92,0.00,,---,0.00,VWS V14.01,2013-02-03 14:10:00,
2013-02-03 09:14:00,27.7,25.9,29.94,East,97,2.0,3.0,93,0.00,,---,0.00,VWS V14.01,2013-02-03 14:14:00,
2013-02-03 09:19:00,27.8,26.0,29.93,East,98,1.0,3.0,93,0.00,,---,0.00,VWS V14.01,2013-02-03 14:19:00,
2013-02-03 09:20:00,28.7,26.7,29.94,East,96,0.0,1.0,92,0.00,,---,0.00,VWS V14.01,2013-02-03 14:20:00,
2013-02-03 09:24:00,27.9,26.1,29.93,ENE,78,0.0,1.0,93,0.00,,---,0.00,VWS V14.01,2013-02-03 14:24:00,
2013-02-03 09:29:00,28.0,26.2,29.93,East,98,0.0,2.0,93,0.00,,---,0.00,VWS V14.01,2013-02-03 14:29:00,
2013-02-03 09:30:00,29.6,27.6,29.94,East,96,0.0,0.0,92,0.00,,---,0.00,VWS V14.01,2013-02-03 14:30:00,
2013-02-03 09:34:00,28.2,26.4,29.93,ESE,107,0.0,1.0,93,0.00,,---,0.00,VWS V14.01,2013-02-03 14:34:00,
2013-02-03 09:39:00,28.2,26.4,29.93,ESE,115,0.0,1.0,93,0.00,,---,0.00,VWS V14.01,2013-02-03 14:39:00,
2013-02-03 09:40:00,30.6,27.5,29.94,East,97,0.0,1.0,88,0.00,,---,0.00,VWS V14.01,2013-02-03 14:40:00,
2013-02-03 09:44:00,28.3,26.3,29.93,SE,134,0.0,2.0,92,0.00,,---,0.00,VWS V14.01,2013-02-03 14:44:00,
2013-02-03 09:49:00,28.3,26.5,29.94,ESE,105,0.0,2.0,93,0.00,,---,0.00,VWS V14.01,2013-02-03 14:49:00,
2013-02-03 09:50:00,30.5,27.6,29.94,SSW,212,3.0,3.0,89,0.00,,---,0.00,VWS V14.01,2013-02-03 14:50:00,
2013-02-03 09:54:00,28.6,26.8,29.93,ESE,106,0.0,0.0,93,0.00,,---,0.00,VWS V14.01,2013-02-03 14:54:00,
2013-02-03 09:59:00,28.6,26.6,29.93,ESE,106,0.0,0.0,92,0.00,,---,0.00,VWS V14.01,2013-02-03 14:59:00,
2013-02-03 10:00:00,31.3,28.2,29.93,SSW,198,0.0,3.0,88,0.00,,---,0.00,VWS V14.01,2013-02-03 15:00:00,
2013-02-03 10:04:00,28.6,26.6,29.93,East,96,0.0,1.0,92,0.00,,---,0.00,VWS V14.01,2013-02-03 15:04:00,
2013-02-03 10:09:00,28.6,26.6,29.93,ESE,103,0.0,1.0,92,0.00,,---,0.00,VWS V14.01,2013-02-03 15:09:00,
2013-02-03 10:10:00,31.2,27.8,29.93,SSE,153,0.0,4.0,87,0.00,,---,0.00,VWS V14.01,2013-02-03 15:10:00,
2013-02-03 10:14:00,28.6,26.6,29.93,East,98,0.0,1.0,92,0.00,,---,0.00,VWS V14.01,2013-02-03 15:14:00,
2013-02-03 10:19:00,28.6,26.6,29.93,East,96,0.0,1.0,92,0.00,,---,0.00,VWS V14.01,2013-02-03 15:19:00,
2013-02-03 10:20:00,31.0,27.6,29.92,East,84,1.0,4.0,87,0.00,,---,0.00,VWS V14.01,2013-02-03 15:20:00,
2013-02-03 10:24:00,28.9,26.9,29.94,East,96,0.0,0.0,92,0.00,,---,0.00,VWS V14.01,2013-02-03 15:24:00,
2013-02-03 10:29:00,29.6,27.6,29.94,East,96,0.0,0.0,92,0.00,,---,0.00,VWS V14.01,2013-02-03 15:29:00,
2013-02-03 10:30:00,30.8,27.7,29.92,East,100,2.0,6.0,88,0.00,,---,0.00,VWS V14.01,2013-02-03 15:30:00,
2013-02-03 10:34:00,30.5,28.5,29.94,East,96,0.0,0.0,92,0.00,,---,0.00,VWS V14.01,2013-02-03 15:34:00,
2013-02-03 10:39:00,30.6,27.5,29.94,East,97,0.0,1.0,88,0.00,,---,0.00,VWS V14.01,2013-02-03 15:39:00,
2013-02-03 10:40:00,31.0,27.6,29.92,East,79,2.0,5.0,87,0.00,,---,0.00,VWS V14.01,2013-02-03 15:40:00,
2013-02-03 10:44:00,30.5,27.6,29.94,SE,126,0.0,0.0,89,0.00,,---,0.00,VWS V14.01,2013-02-03 15:44:00,
2013-02-03 10:49:00,30.5,27.4,29.94,SSW,212,0.0,1.0,88,0.00,,---,0.00,VWS V14.01,2013-02-03 15:49:00,
2013-02-03 10:50:00,31.1,28.0,29.90,East,92,5.0,7.0,88,0.00,,---,0.00,VWS V14.01,2013-02-03 15:50:00,
2013-02-03 10:54:00,30.9,28.0,29.94,SW,215,0.0,3.0,89,0.00,,---,0.00,VWS V14.01,2013-02-03 15:54:00,
2013-02-03 10:59:00,31.3,28.2,29.93,SSW,198,0.0,3.0,88,0.00,,---,0.00,VWS V14.01,2013-02-03 15:59:00,
2013-02-03 11:00:00,31.4,28.0,29.89,ESE,108,2.0,5.0,87,0.00,,---,0.00,VWS V14.01,2013-02-03 16:00:00,
2013-02-03 11:04:00,31.5,27.8,29.93,SE,137,3.0,4.0,86,0.00,,---,0.00,VWS V14.01,2013-02-03 16:04:00,
2013-02-03 11:09:00,31.3,27.9,29.93,SSE,153,0.0,4.0,87,0.00,,---,0.00,VWS V14.01,2013-02-03 16:09:00,
2013-02-03 11:10:00,31.7,28.3,29.89,ESE,109,4.0,5.0,87,0.01,,---,0.01,VWS V14.01,2013-02-03 16:10:00,
2013-02-03 11:14:00,31.3,27.9,29.93,East,101,1.0,4.0,87,0.00,,---,0.00,VWS V14.01,2013-02-03 16:14:00,
2013-02-03 11:19:00,31.0,27.6,29.93,East,86,2.0,4.0,87,0.00,,---,0.00,VWS V14.01,2013-02-03 16:19:00,
2013-02-03 11:20:00,32.2,28.8,29.89,East,89,0.0,5.0,87,0.01,,---,0.01,VWS V14.01,2013-02-03 16:20:00,
2013-02-03 11:24:00,30.7,27.6,29.92,ESE,111,1.0,2.0,88,0.00,,---,0.00,VWS V14.01,2013-02-03 16:24:00,
2013-02-03 11:29:00,30.8,27.7,29.92,ESE,108,2.0,6.0,88,0.00,,---,0.00,VWS V14.01,2013-02-03 16:29:00,
2013-02-03 11:30:00,32.3,28.9,29.88,East,96,0.0,3.0,87,0.01,,---,0.01,VWS V14.01,2013-02-03 16:30:00,
2013-02-03 11:34:00,30.8,27.7,29.92,East,94,1.0,3.0,88,0.00,,---,0.00,VWS V14.01,2013-02-03 16:34:00,
2013-02-03 11:39:00,31.0,27.6,29.92,East,79,2.0,5.0,87,0.00,,---,0.00,VWS V14.01,2013-02-03 16:39:00,
2013-02-03 11:40:00,33.2,29.2,29.88,SE,132,0.0,4.0,85,0.02,,---,0.02,VWS V14.01,2013-02-03 16:40:00,
2013-02-03 11:44:00,31.0,27.6,29.91,SE,126,3.0,4.0,87,0.00,,---,0.00,VWS V14.01,2013-02-03 16:44:00,
2013-02-03 11:49:00,31.1,28.0,29.90,East,96,6.0,7.0,88,0.00,,---,0.00,VWS V14.01,2013-02-03 16:49:00,
2013-02-03 11:50:00,33.5,28.6,29.87,NE,54,1.0,3.0,82,0.02,,---,0.02,VWS V14.01,2013-02-03 16:50:00,
2013-02-03 11:54:00,31.2,27.8,29.90,East,89,3.0,5.0,87,0.00,,---,0.00,VWS V14.01,2013-02-03 16:54:00,
2013-02-03 11:59:00,31.4,28.0,29.90,ESE,102,2.0,5.0,87,0.00,,---,0.00,VWS V14.01,2013-02-03 16:59:00,
2013-02-03 12:00:00,33.6,29.0,29.87,SW,228,1.0,3.0,83,0.02,,---,0.02,VWS V14.01,2013-02-03 17:00:00,
2013-02-03 12:04:00,31.4,27.7,29.90,ENE,60,2.0,5.0,86,0.00,,---,0.00,VWS V14.01,2013-02-03 17:04:00,
2013-02-03 12:09:00,31.7,28.3,29.89,ESE,109,4.0,5.0,87,0.01,,---,0.01,VWS V14.01,2013-02-03 17:09:00,
2013-02-03 12:10:00,34.3,29.4,29.86,WNW,297,3.0,4.0,82,0.02,,---,0.02,VWS V14.01,2013-02-03 17:10:00,
2013-02-03 12:14:00,32.1,29.0,29.89,East,98,1.0,5.0,88,0.01,,---,0.01,VWS V14.01,2013-02-03 17:14:00,
2013-02-03 12:20:00,32.2,28.8,29.89,East,89,1.0,1.0,87,0.01,,---,0.01,VWS V14.01,2013-02-03 17:20:00,
2013-02-03 12:25:00,32.0,28.3,29.88,SE,139,1.0,3.0,86,0.01,,---,0.01,VWS V14.01,2013-02-03 17:25:00,
2013-02-03 12:30:00,32.3,28.6,29.88,East,98,0.0,0.0,86,0.01,,---,0.01,VWS V14.01,2013-02-03 17:30:00,
2013-02-03 12:35:00,32.6,28.6,29.88,ESE,122,0.0,3.0,85,0.01,,---,0.01,VWS V14.01,2013-02-03 17:35:00,
2013-02-03 12:40:00,33.2,29.2,29.88,SE,140,0.0,0.0,85,0.02,,---,0.02,VWS V14.01,2013-02-03 17:40:00,
2013-02-03 12:45:00,33.4,28.8,29.87,WSW,252,0.0,1.0,83,0.02,,---,0.02,VWS V14.01,2013-02-03 17:45:00,
2013-02-03 12:50:00,33.5,28.6,29.87,NE,54,0.0,1.0,82,0.02,,---,0.02,VWS V14.01,2013-02-03 17:50:00,
2013-02-03 12:55:00,33.6,29.3,29.87,WNW,301,3.0,3.0,84,0.02,,---,0.02,VWS V14.01,2013-02-03 17:55:00,
2013-02-03 13:00:00,33.7,29.1,29.87,SW,236,1.0,2.0,83,0.02,,---,0.02,VWS V14.01,2013-02-03 18:00:00,
2013-02-03 13:05:00,34.1,29.8,29.86,SSE,151,0.0,2.0,84,0.02,,---,0.02,VWS V14.01,2013-02-03 18:05:00,
2013-02-03 13:10:00,34.3,29.4,29.86,West,280,1.0,3.0,82,0.01,,---,0.02,VWS V14.01,2013-02-03 18:10:00,
2013-02-03 13:15:00,34.5,29.9,29.86,NNE,20,1.0,3.0,83,0.01,,---,0.02,VWS V14.01,2013-02-03 18:15:00,
2013-02-03 13:20:00,34.8,29.6,29.86,SW,224,0.0,1.0,81,0.01,,---,0.02,VWS V14.01,2013-02-03 18:20:00,
2013-02-03 13:25:00,35.3,30.1,29.85,WNW,297,0.0,2.0,81,0.01,,---,0.02,VWS V14.01,2013-02-03 18:25:00,
2013-02-03 13:30:00,35.5,29.0,29.85,WSW,239,1.0,1.0,77,0.01,,---,0.02,VWS V14.01,2013-02-03 18:30:00,
2013-02-03 13:35:00,35.5,28.7,29.85,WSW,239,2.0,5.0,76,0.01,,---,0.02,VWS V14.01,2013-02-03 18:35:00,
2013-02-03 13:40:00,35.7,29.2,29.84,WSW,239,1.0,1.0,77,0.00,,---,0.02,VWS V14.01,2013-02-03 18:40:00,
2013-02-03 13:45:00,36.3,30.4,29.84,SSW,204,1.0,3.0,79,0.00,,---,0.02,VWS V14.01,2013-02-03 18:45:00,
2013-02-03 13:50:00,36.7,29.5,29.84,ENE,64,1.0,2.0,75,0.00,,---,0.02,VWS V14.01,2013-02-03 18:50:00,
2013-02-03 13:55:00,37.0,30.5,29.83,West,263,3.0,8.0,77,0.00,,---,0.02,VWS V14.01,2013-02-03 18:55:00,
2013-02-03 14:00:00,37.3,28.8,29.83,WNW,291,0.0,2.0,71,0.00,,---,0.02,VWS V14.01,2013-02-03 19:00:00,
2013-02-03 14:05:00,37.6,29.7,29.83,SSW,205,2.0,4.0,73,0.00,,---,0.02,VWS V14.01,2013-02-03 19:05:00,
2013-02-03 14:10:00,37.9,29.7,29.83,WNW,287,0.0,1.0,72,0.00,,---,0.02,VWS V14.01,2013-02-03 19:10:00,
2013-02-03 14:15:00,38.3,29.4,29.83,ESE,117,0.0,4.0,70,0.00,,---,0.02,VWS V14.01,2013-02-03 19:15:00,
2013-02-03 14:20:00,38.9,29.6,29.83,West,277,3.0,7.0,69,0.00,,---,0.02,VWS V14.01,2013-02-03 19:20:00,
2013-02-03 14:25:00,38.8,28.8,29.83,SSW,208,6.0,7.0,67,0.00,,---,0.02,VWS V14.01,2013-02-03 19:25:00,
2013-02-03 14:30:00,38.8,29.2,29.83,South,172,4.0,6.0,68,0.00,,---,0.02,VWS V14.01,2013-02-03 19:30:00,
2013-02-03 14:35:00,38.7,27.6,29.83,WSW,243,4.0,6.0,64,0.00,,---,0.02,VWS V14.01,2013-02-03 19:35:00,
2013-02-03 14:40:00,38.3,28.0,29.83,WSW,254,5.0,6.0,66,0.00,,---,0.02,VWS V14.01,2013-02-03 19:40:00,
2013-02-03 14:45:00,37.9,27.6,29.83,WSW,238,2.0,7.0,66,0.00,,---,0.02,VWS V14.01,2013-02-03 19:45:00,
2013-02-03 14:50:00,41.1,27.9,29.82,WNW,285,1.0,6.0,59,0.00,,---,0.02,VWS V14.01,2013-02-03 19:50:00,
2013-02-03 14:51:00,38.0,27.7,29.83,West,262,1.0,5.0,66,0.00,,---,0.02,VWS V14.01,2013-02-03 19:51:00,
2013-02-03 14:56:00,38.2,28.6,29.83,West,266,3.0,6.0,68,0.00,,---,0.02,VWS V14.01,2013-02-03 19:56:00,
2013-02-03 15:00:00,39.9,27.2,29.82,SW,215,2.0,8.0,60,0.00,,---,0.02,VWS V14.01,2013-02-03 20:00:00,
2013-02-03 15:01:00,38.3,28.0,29.83,SE,137,1.0,4.0,66,0.00,,---,0.02,VWS V14.01,2013-02-03 20:01:00,
2013-02-03 15:06:00,38.4,27.7,29.83,East,97,0.0,5.0,65,0.00,,---,0.02,VWS V14.01,2013-02-03 20:06:00,
2013-02-03 15:10:00,39.1,27.2,29.82,West,269,2.0,6.0,62,0.00,,---,0.02,VWS V14.01,2013-02-03 20:10:00,
2013-02-03 15:11:00,38.6,28.2,29.83,WNW,285,3.0,6.0,66,0.00,,---,0.02,VWS V14.01,2013-02-03 20:11:00,
2013-02-03 15:16:00,38.7,28.0,29.83,WSW,252,1.0,6.0,65,0.00,,---,0.02,VWS V14.01,2013-02-03 20:16:00,
2013-02-03 15:20:00,38.7,26.8,29.82,West,264,11.0,11.0,62,0.00,,---,0.02,VWS V14.01,2013-02-03 20:20:00,
2013-02-03 15:21:00,39.1,28.0,29.82,South,190,2.0,3.0,64,0.00,,---,0.02,VWS V14.01,2013-02-03 20:21:00,
2013-02-03 15:26:00,39.5,28.7,29.82,West,262,3.0,4.0,65,0.00,,---,0.02,VWS V14.01,2013-02-03 20:26:00,
2013-02-03 15:30:00,38.8,25.7,29.82,West,279,8.0,15.0,59,0.00,,---,0.02,VWS V14.01,2013-02-03 20:30:00,
2013-02-03 15:31:00,40.4,29.2,29.82,NW,313,0.0,0.0,64,0.00,,---,0.02,VWS V14.01,2013-02-03 20:31:00,
2013-02-03 15:36:00,41.0,28.2,29.82,SSW,198,4.0,6.0,60,0.00,,---,0.02,VWS V14.01,2013-02-03 20:36:00,
2013-02-03 15:40:00,38.8,24.5,29.83,WSW,254,7.0,13.0,56,0.00,,---,0.02,VWS V14.01,2013-02-03 20:40:00,
2013-02-03 15:41:00,41.2,28.4,29.82,SW,231,0.0,2.0,60,0.00,,---,0.02,VWS V14.01,2013-02-03 20:41:00,
2013-02-03 15:46:00,41.1,27.9,29.82,SW,215,4.0,6.0,59,0.00,,---,0.02,VWS V14.01,2013-02-03 20:46:00,
2013-02-03 15:50:00,38.7,24.8,29.83,WNW,300,10.0,10.0,57,0.00,,---,0.02,VWS V14.01,2013-02-03 20:50:00,
2013-02-03 15:51:00,41.0,27.8,29.82,SW,226,2.0,2.0,59,0.00,,---,0.02,VWS V14.01,2013-02-03 20:51:00,
2013-02-03 15:56:00,40.4,28.0,29.82,WSW,257,4.0,5.0,61,0.00,,---,0.02,VWS V14.01,2013-02-03 20:56:00,
2013-02-03 16:00:00,38.7,24.8,29.83,WNW,287,4.0,12.0,57,0.00,,---,0.02,VWS V14.01,2013-02-03 21:00:00,
2013-02-03 16:01:00,39.7,27.0,29.82,WSW,257,4.0,6.0,60,0.00,,---,0.02,VWS V14.01,2013-02-03 21:01:00,
2013-02-03 16:06:00,39.3,27.0,29.82,West,273,2.0,6.0,61,0.00,,---,0.02,VWS V14.01,2013-02-03 21:06:00,
2013-02-03 16:10:00,38.6,25.1,29.83,WSW,249,8.0,11.0,58,0.00,,---,0.02,VWS V14.01,2013-02-03 21:10:00,
2013-02-03 16:11:00,39.1,27.6,29.82,West,271,1.0,2.0,63,0.00,,---,0.02,VWS V14.01,2013-02-03 21:11:00,
2013-02-03 16:16:00,38.8,26.9,29.82,West,278,6.0,7.0,62,0.00,,---,0.02,VWS V14.01,2013-02-03 21:16:00,
2013-02-03 16:20:00,38.4,24.9,29.83,West,277,7.0,12.0,58,0.00,,---,0.02,VWS V14.01,2013-02-03 21:20:00,
2013-02-03 16:21:00,38.7,26.0,29.82,West,277,8.0,14.0,60,0.00,,---,0.02,VWS V14.01,2013-02-03 21:21:00,
2013-02-03 16:26:00,38.8,25.3,29.82,West,281,6.0,15.0,58,0.00,,---,0.02,VWS V14.01,2013-02-03 21:26:00,
2013-02-03 16:30:00,38.2,24.3,29.83,West,262,6.0,11.0,57,0.00,,---,0.02,VWS V14.01,2013-02-03 21:30:00,
2013-02-03 16:31:00,38.9,25.0,29.82,WSW,256,10.0,11.0,57,0.00,,---,0.02,VWS V14.01,2013-02-03 21:31:00,
2013-02-03 16:36:00,38.9,25.0,29.82,WNW,300,10.0,13.0,57,0.00,,---,0.02,VWS V14.01,2013-02-03 21:36:00,
2013-02-03 16:40:00,37.8,24.8,29.83,West,263,4.0,9.0,59,0.00,,---,0.02,VWS V14.01,2013-02-03 21:40:00,
2013-02-03 16:41:00,38.8,24.5,29.82,West,267,6.0,10.0,56,0.00,,---,0.02,VWS V14.01,2013-02-03 21:41:00,
2013-02-03 16:46:00,38.7,24.8,29.82,West,278,4.0,10.0,57,0.00,,---,0.02,VWS V14.01,2013-02-03 21:46:00,
2013-02-03 16:50:00,37.5,24.9,29.84,WSW,244,2.0,6.0,60,0.00,,---,0.02,VWS V14.01,2013-02-03 21:50:00,
2013-02-03 16:51:00,38.7,24.8,29.83,WNW,287,3.0,10.0,57,0.00,,---,0.02,VWS V14.01,2013-02-03 21:51:00,
2013-02-03 16:56:00,38.7,24.8,29.83,WSW,254,4.0,12.0,57,0.00,,---,0.02,VWS V14.01,2013-02-03 21:56:00,
2013-02-03 17:00:00,37.2,24.6,29.84,West,273,2.0,7.0,60,0.00,,---,0.02,VWS V14.01,2013-02-03 22:00:00,
2013-02-03 17:01:00,38.7,25.2,29.83,SW,218,5.0,10.0,58,0.00,,---,0.02,VWS V14.01,2013-02-03 22:01:00,
2013-02-03 17:06:00,38.7,24.8,29.83,WNW,287,3.0,10.0,57,0.00,,---,0.02,VWS V14.01,2013-02-03 22:06:00,
2013-02-03 17:10:00,36.9,24.7,29.84,WSW,257,3.0,6.0,61,0.00,,---,0.02,VWS V14.01,2013-02-03 22:10:00,
2013-02-03 17:11:00,38.6,25.1,29.83,West,274,4.0,12.0,58,0.00,,---,0.02,VWS V14.01,2013-02-03 22:11:00,
2013-02-03 17:16:00,38.5,25.0,29.83,West,273,4.0,12.0,58,0.00,,---,0.02,VWS V14.01,2013-02-03 22:16:00,
2013-02-03 17:20:00,36.7,24.5,29.85,West,265,1.0,8.0,61,0.00,,---,0.02,VWS V14.01,2013-02-03 22:20:00,
2013-02-03 17:21:00,38.4,24.9,29.83,WNW,291,5.0,9.0,58,0.00,,---,0.02,VWS V14.01,2013-02-03 22:21:00,
2013-02-03 17:26:00,38.3,25.2,29.83,West,276,10.0,11.0,59,0.00,,---,0.02,VWS V14.01,2013-02-03 22:26:00,
2013-02-03 17:30:00,36.2,24.1,29.85,WSW,249,3.0,7.0,61,0.00,,---,0.02,VWS V14.01,2013-02-03 22:30:00,
2013-02-03 17:31:00,38.2,24.7,29.83,WNW,293,8.0,9.0,58,0.00,,---,0.02,VWS V14.01,2013-02-03 22:31:00,
2013-02-03 17:36:00,38.0,25.0,29.83,SW,230,3.0,9.0,59,0.00,,---,0.02,VWS V14.01,2013-02-03 22:36:00,
2013-02-03 17:40:00,36.1,23.2,29.85,WNW,293,3.0,8.0,59,0.00,,---,0.02,VWS V14.01,2013-02-03 22:40:00,
2013-02-03 17:41:00,37.7,24.7,29.83,WSW,252,3.0,5.0,59,0.00,,---,0.02,VWS V14.01,2013-02-03 22:41:00,
2013-02-03 17:46:00,37.5,24.5,29.84,West,275,3.0,6.0,59,0.00,,---,0.02,VWS V14.01,2013-02-03 22:46:00,
2013-02-03 17:50:00,36.4,21.8,29.85,WSW,244,7.0,11.0,55,0.00,,---,0.02,VWS V14.01,2013-02-03 22:50:00,
2013-02-03 17:51:00,37.4,24.4,29.84,WSW,246,5.0,6.0,59,0.00,,---,0.02,VWS V14.01,2013-02-03 22:51:00,
2013-02-03 17:57:00,37.2,24.6,29.84,West,280,5.0,7.0,60,0.00,,---,0.02,VWS V14.01,2013-02-03 22:57:00,
2013-02-03 18:00:00,36.1,21.5,29.86,West,273,4.0,10.0,55,0.00,,---,0.02,VWS V14.01,2013-02-03 23:00:00,
2013-02-03 18:01:00,37.1,24.5,29.84,WSW,243,4.0,4.0,60,0.00,,---,0.02,VWS V14.01,2013-02-03 23:01:00,
2013-02-03 18:07:00,37.0,24.4,29.84,West,280,3.0,6.0,60,0.00,,---,0.02,VWS V14.01,2013-02-03 23:07:00,
2013-02-03 18:10:00,36.0,21.0,29.87,WNW,285,11.0,14.0,54,0.00,,---,0.02,VWS V14.01,2013-02-03 23:10:00,
2013-02-03 18:12:00,36.9,24.3,29.84,West,263,4.0,5.0,60,0.00,,---,0.02,VWS V14.01,2013-02-03 23:12:00,
2013-02-03 18:17:00,36.8,24.2,29.85,West,271,1.0,8.0,60,0.00,,---,0.02,VWS V14.01,2013-02-03 23:17:00,
2013-02-03 18:20:00,36.1,20.6,29.88,WNW,293,2.0,11.0,53,0.00,,---,0.02,VWS V14.01,2013-02-03 23:20:00,
2013-02-03 18:22:00,36.5,24.3,29.85,WNW,288,1.0,3.0,61,0.00,,---,0.02,VWS V14.01,2013-02-03 23:22:00,
2013-02-03 18:27:00,36.3,24.1,29.85,WSW,248,4.0,7.0,61,0.00,,---,0.02,VWS V14.01,2013-02-03 23:27:00,
2013-02-03 18:30:00,36.1,20.6,29.89,WNW,293,7.0,15.0,53,0.00,,---,0.02,VWS V14.01,2013-02-03 23:30:00,
2013-02-03 18:32:00,36.1,23.6,29.85,WNW,287,4.0,8.0,60,0.00,,---,0.02,VWS V14.01,2013-02-03 23:32:00,
2013-02-03 18:37:00,36.1,23.6,29.85,WNW,297,6.0,8.0,60,0.00,,---,0.02,VWS V14.01,2013-02-03 23:37:00,
2013-02-03 18:40:00,36.6,20.6,29.89,WNW,293,7.0,11.0,52,0.00,,---,0.02,VWS V14.01,2013-02-03 23:40:00,
2013-02-03 18:42:00,36.2,22.9,29.85,WSW,238,6.0,10.0,58,0.00,,---,0.02,VWS V14.01,2013-02-03 23:42:00,
2013-02-03 18:47:00,36.4,21.8,29.85,WNW,285,7.0,11.0,55,0.00,,---,0.02,VWS V14.01,2013-02-03 23:47:00,
2013-02-03 18:50:00,36.7,21.2,29.89,NW,308,3.0,9.0,53,0.00,,---,0.02,VWS V14.01,2013-02-03 23:50:00,
2013-02-03 18:52:00,36.4,21.8,29.85,West,274,2.0,8.0,55,0.00,,---,0.02,VWS V14.01,2013-02-03 23:52:00,
2013-02-03 18:57:00,36.2,21.6,29.86,West,276,3.0,10.0,55,0.00,,---,0.02,VWS V14.01,2013-02-03 23:57:00,
2013-02-03 19:00:00,36.5,20.6,29.90,West,279,4.0,8.0,52,0.00,,---,0.02,VWS V14.01,2013-02-04 00:00:00,
2013-02-03 19:02:00,36.1,21.9,29.87,West,269,3.0,4.0,56,0.00,,---,0.02,VWS V14.01,2013-02-04 00:02:00,
2013-02-03 19:07:00,35.9,20.9,29.87,WNW,291,3.0,8.0,54,0.00,,---,0.02,VWS V14.01,2013-02-04 00:07:00,
2013-02-03 19:10:00,36.3,21.3,29.90,WNW,285,11.0,15.0,54,0.00,,---,0.02,VWS V14.01,2013-02-04 00:10:00,
2013-02-03 19:12:00,36.2,20.7,29.87,West,274,5.0,11.0,53,0.00,,---,0.02,VWS V14.01,2013-02-04 00:12:00,
2013-02-03 19:17:00,36.1,20.6,29.88,WSW,250,3.0,11.0,53,0.00,,---,0.02,VWS V14.01,2013-02-04 00:17:00,
2013-02-03 19:20:00,36.2,21.2,29.91,WNW,287,4.0,12.0,54,0.00,,---,0.02,VWS V14.01,2013-02-04 00:20:00,
2013-02-03 19:22:00,36.0,20.5,29.88,West,261,3.0,6.0,53,0.00,,---,0.02,VWS V14.01,2013-02-04 00:22:00,
2013-02-03 19:27:00,36.0,21.0,29.89,West,263,11.0,11.0,54,0.00,,---,0.02,VWS V14.01,2013-02-04 00:27:00,
2013-02-03 19:30:00,36.1,21.1,29.91,West,269,4.0,11.0,54,0.00,,---,0.02,VWS V14.01,2013-02-04 00:30:00,
2013-02-03 19:32:00,36.3,20.8,29.89,WNW,289,5.0,9.0,53,0.00,,---,0.02,VWS V14.01,2013-02-04 00:32:00,
2013-02-03 19:37:00,36.5,20.6,29.89,WNW,287,5.0,11.0,52,0.00,,---,0.02,VWS V14.01,2013-02-04 00:37:00,
2013-02-03 19:40:00,35.7,21.6,29.92,WNW,298,6.0,9.0,56,0.00,,---,0.02,VWS V14.01,2013-02-04 00:40:00,
2013-02-03 19:42:00,36.7,20.8,29.89,West,274,2.0,9.0,52,0.00,,---,0.02,VWS V14.01,2013-02-04 00:42:00,
2013-02-03 19:47:00,36.8,20.8,29.89,WNW,288,2.0,9.0,52,0.00,,---,0.02,VWS V14.01,2013-02-04 00:47:00,
2013-02-03 19:50:00,35.4,20.9,29.92,West,281,6.0,8.0,55,0.00,,---,0.02,VWS V14.01,2013-02-04 00:50:00,
2013-02-03 19:52:00,36.6,21.1,29.89,WNW,302,2.0,5.0,53,0.00,,---,0.02,VWS V14.01,2013-02-04 00:52:00,
2013-02-03 19:57:00,36.6,21.1,29.89,WNW,283,6.0,7.0,53,0.00,,---,0.02,VWS V14.01,2013-02-04 00:57:00,
2013-02-03 20:00:00,35.1,19.3,29.93,West,271,4.0,12.0,52,0.00,,---,0.02,VWS V14.01,2013-02-04 01:00:00,
2013-02-03 20:02:00,36.5,21.5,29.90,WNW,291,3.0,9.0,54,0.00,,---,0.02,VWS V14.01,2013-02-04 01:02:00,
2013-02-03 20:07:00,36.4,21.4,29.90,West,278,9.0,11.0,54,0.00,,---,0.02,VWS V14.01,2013-02-04 01:07:00,
2013-02-03 20:10:00,34.8,18.5,29.93,WNW,293,11.0,14.0,51,0.00,,---,0.02,VWS V14.01,2013-02-04 01:10:00,
2013-02-03 20:12:00,36.3,21.3,29.91,West,271,6.0,12.0,54,0.00,,---,0.02,VWS V14.01,2013-02-04 01:12:00,
2013-02-03 20:17:00,36.3,21.7,29.91,NNW,337,5.0,12.0,55,0.00,,---,0.02,VWS V14.01,2013-02-04 01:17:00,
2013-02-03 20:20:00,34.4,19.0,29.93,WNW,291,3.0,14.0,53,0.00,,---,0.02,VWS V14.01,2013-02-04 01:20:00,
2013-02-03 20:22:00,36.2,21.2,29.91,WNW,283,6.0,11.0,54,0.00,,---,0.02,VWS V14.01,2013-02-04 01:22:00,
2013-02-03 20:27:00,36.1,21.1,29.92,WNW,291,6.0,11.0,54,0.00,,---,0.02,VWS V14.01,2013-02-04 01:27:00,
2013-02-03 20:30:00,34.0,20.0,29.94,WNW,287,10.0,11.0,56,0.00,,---,0.02,VWS V14.01,2013-02-04 01:30:00,
2013-02-03 20:32:00,36.0,21.4,29.92,West,279,5.0,6.0,55,0.00,,---,0.02,VWS V14.01,2013-02-04 01:32:00,
2013-02-03 20:37:00,35.8,21.2,29.92,WNW,283,6.0,9.0,55,0.00,,---,0.02,VWS V14.01,2013-02-04 01:37:00,
2013-02-03 20:40:00,33.8,18.5,29.94,WNW,288,5.0,12.0,53,0.00,,---,0.02,VWS V14.01,2013-02-04 01:40:00,
2013-02-03 20:42:00,35.7,21.1,29.92,WNW,298,3.0,8.0,55,0.00,,---,0.02,VWS V14.01,2013-02-04 01:42:00,
2013-02-03 20:47:00,35.5,21.0,29.93,NNW,339,3.0,8.0,55,0.00,,---,0.02,VWS V14.01,2013-02-04 01:47:00,
2013-02-03 20:50:00,33.5,17.8,29.94,West,281,8.0,12.0,52,0.00,,---,0.02,VWS V14.01,2013-02-04 01:50:00,
2013-02-03 20:52:00,35.3,19.9,29.93,WNW,290,6.0,8.0,53,0.00,,---,0.02,VWS V14.01,2013-02-04 01:52:00,
2013-02-03 20:57:00,35.2,19.4,29.93,WNW,283,7.0,12.0,52,0.00,,---,0.02,VWS V14.01,2013-02-04 01:57:00,
2013-02-03 21:00:00,33.6,17.0,29.94,NW,314,5.0,15.0,50,0.00,,---,0.02,VWS V14.01,2013-02-04 02:00:00,
2013-02-03 21:02:00,35.0,19.2,29.93,NW,308,3.0,11.0,52,0.00,,---,0.02,VWS V14.01,2013-02-04 02:02:00,
2013-02-03 21:07:00,34.8,18.1,29.93,NNW,335,6.0,14.0,50,0.00,,---,0.02,VWS V14.01,2013-02-04 02:07:00,
2013-02-03 21:10:00,33.5,16.4,29.94,WNW,289,4.0,13.0,49,0.00,,---,0.02,VWS V14.01,2013-02-04 02:10:00,
2013-02-03 21:12:00,34.7,18.9,29.93,West,281,5.0,14.0,52,0.00,,---,0.02,VWS V14.01,2013-02-04 02:12:00,
2013-02-03 21:17:00,34.5,18.2,29.93,WNW,301,7.0,14.0,51,0.00,,---,0.02,VWS V14.01,2013-02-04 02:17:00,
2013-02-03 21:20:00,33.2,16.6,29.94,WNW,285,3.0,9.0,50,0.00,,---,0.02,VWS V14.01,2013-02-04 02:20:00,
2013-02-03 21:22:00,34.3,19.8,29.93,WNW,283,10.0,10.0,55,0.00,,---,0.02,VWS V14.01,2013-02-04 02:22:00,
2013-02-03 21:27:00,34.0,20.0,29.94,West,271,9.0,10.0,56,0.00,,---,0.02,VWS V14.01,2013-02-04 02:27:00,
2013-02-03 21:30:00,33.1,16.0,29.94,NW,306,4.0,10.0,49,0.00,,---,0.02,VWS V14.01,2013-02-04 02:30:00,
2013-02-03 21:32:00,33.9,19.5,29.94,West,273,10.0,12.0,55,0.00,,---,0.02,VWS V14.01,2013-02-04 02:32:00,
2013-02-03 21:37:00,33.8,18.9,29.94,WNW,283,9.0,12.0,54,0.00,,---,0.02,VWS V14.01,2013-02-04 02:37:00,
2013-02-03 21:40:00,33.1,16.0,29.94,WNW,287,7.0,13.0,49,0.00,,---,0.02,VWS V14.01,2013-02-04 02:40:00,
2013-02-03 21:42:00,33.8,18.5,29.93,NW,319,5.0,11.0,53,0.00,,---,0.02,VWS V14.01,2013-02-04 02:42:00,
2013-02-03 21:47:00,33.6,18.3,29.94,WNW,284,5.0,11.0,53,0.00,,---,0.02,VWS V14.01,2013-02-04 02:47:00,
2013-02-03 21:50:00,32.9,15.4,29.94,WNW,293,21.0,21.0,48,0.00,,---,0.02,VWS V14.01,2013-02-04 02:50:00,
2013-02-03 21:52:00,33.5,16.9,29.94,WNW,285,10.0,13.0,50,0.00,,---,0.02,VWS V14.01,2013-02-04 02:52:00,
2013-02-03 21:57:00,33.6,17.0,29.94,NW,319,10.0,15.0,50,0.00,,---,0.02,VWS V14.01,2013-02-04 02:57:00,
2013-02-03 22:00:00,33.0,15.0,29.95,WSW,256,15.0,17.0,47,0.00,,---,0.02,VWS V14.01,2013-02-04 03:00:00,
2013-02-03 22:02:00,33.5,16.9,29.94,NW,320,6.0,13.0,50,0.00,,---,0.02,VWS V14.01,2013-02-04 03:02:00,
2013-02-03 22:08:00,33.5,16.4,29.94,WNW,293,5.0,13.0,49,0.00,,---,0.02,VWS V14.01,2013-02-04 03:08:00,
2013-02-03 22:10:00,32.8,14.8,29.95,WNW,299,5.0,17.0,47,0.00,,---,0.02,VWS V14.01,2013-02-04 03:10:00,
2013-02-03 22:13:00,33.5,16.4,29.94,WNW,289,5.0,8.0,49,0.00,,---,0.02,VWS V14.01,2013-02-04 03:13:00,
2013-02-03 22:18:00,33.3,16.2,29.94,WNW,301,7.0,9.0,49,0.00,,---,0.02,VWS V14.01,2013-02-04 03:18:00,
2013-02-03 22:20:00,32.4,14.9,29.96,North,352,4.0,13.0,48,0.00,,---,0.02,VWS V14.01,2013-02-04 03:20:00,
2013-02-03 22:23:00,33.2,16.6,29.94,West,267,2.0,10.0,50,0.00,,---,0.02,VWS V14.01,2013-02-04 03:23:00,
2013-02-03 22:28:00,33.1,16.5,29.95,WNW,288,3.0,10.0,50,0.00,,---,0.02,VWS V14.01,2013-02-04 03:28:00,
2013-02-03 22:30:00,32.1,14.6,29.95,WNW,294,11.0,11.0,48,0.00,,---,0.02,VWS V14.01,2013-02-04 03:30:00,
2013-02-03 22:33:00,33.0,15.9,29.94,WNW,291,6.0,9.0,49,0.00,,---,0.02,VWS V14.01,2013-02-04 03:33:00,
2013-02-03 22:38:00,33.1,15.6,29.94,West,274,2.0,13.0,48,0.00,,---,0.02,VWS V14.01,2013-02-04 03:38:00,
2013-02-03 22:40:00,32.0,14.1,29.96,WSW,250,2.0,13.0,47,0.00,,---,0.02,VWS V14.01,2013-02-04 03:40:00,
2013-02-03 22:43:00,33.0,15.9,29.94,West,275,7.0,12.0,49,0.00,,---,0.02,VWS V14.01,2013-02-04 03:43:00,
2013-02-03 22:48:00,32.9,15.9,29.94,WNW,285,9.0,12.0,49,0.00,,---,0.02,VWS V14.01,2013-02-04 03:48:00,
2013-02-03 22:50:00,31.7,13.8,29.96,WNW,301,8.0,10.0,47,0.00,,---,0.02,VWS V14.01,2013-02-04 03:50:00,
2013-02-03 22:53:00,33.1,15.1,29.94,NW,305,10.0,17.0,47,0.00,,---,0.02,VWS V14.01,2013-02-04 03:53:00,
2013-02-03 22:58:00,33.0,15.0,29.95,WNW,283,5.0,17.0,47,0.00,,---,0.02,VWS V14.01,2013-02-04 03:58:00,
2013-02-03 23:00:00,31.7,13.3,29.97,WSW,239,11.0,12.0,46,0.00,,---,0.00,VWS V14.01,2013-02-04 04:00:00,
2013-02-03 23:03:00,32.9,14.9,29.95,WNW,294,3.0,17.0,47,0.00,,---,0.02,VWS V14.01,2013-02-04 04:03:00,
2013-02-03 23:08:00,32.8,14.8,29.95,WNW,302,7.0,17.0,47,0.00,,---,0.02,VWS V14.01,2013-02-04 04:08:00,
2013-02-03 23:10:00,31.4,13.5,29.97,WNW,300,2.0,10.0,47,0.00,,---,0.00,VWS V14.01,2013-02-04 04:10:00,
2013-02-03 23:13:00,32.7,14.7,29.95,WSW,252,1.0,13.0,47,0.00,,---,0.02,VWS V14.01,2013-02-04 04:13:00,
2013-02-03 23:18:00,32.5,14.5,29.95,WNW,298,2.0,13.0,47,0.00,,---,0.02,VWS V14.01,2013-02-04 04:18:00,
2013-02-03 23:20:00,31.0,13.1,29.97,WNW,287,1.0,9.0,47,0.00,,---,0.00,VWS V14.01,2013-02-04 04:20:00,
2013-02-03 23:23:00,32.2,14.7,29.95,North,356,4.0,5.0,48,0.00,,---,0.02,VWS V14.01,2013-02-04 04:23:00,
2013-02-03 23:28:00,32.1,14.2,29.95,West,260,8.0,10.0,47,0.00,,---,0.02,VWS V14.01,2013-02-04 04:28:00,
2013-02-03 23:30:00,30.7,13.4,29.98,WNW,297,0.0,10.0,48,0.00,,---,0.00,VWS V14.01,2013-02-04 04:30:00,
2013-02-03 23:33:00,32.1,14.2,29.96,West,265,11.0,11.0,47,0.00,,---,0.02,VWS V14.01,2013-02-04 04:33:00,
2013-02-03 23:38:00,32.0,14.1,29.96,West,264,0.0,13.0,47,0.00,,---,0.02,VWS V14.01,2013-02-04 04:38:00,
2013-02-03 23:40:00,30.3,13.0,29.98,WSW,249,1.0,6.0,48,0.00,,---,0.00,VWS V14.01,2013-02-04 04:40:00,
2013-02-03 23:43:00,31.8,13.9,29.96,WNW,293,7.0,8.0,47,0.00,,---,0.02,VWS V14.01,2013-02-04 04:43:00,
2013-02-03 23:48:00,31.7,13.8,29.96,WNW,298,3.0,9.0,47,0.00,,---,0.02,VWS V14.01,2013-02-04 04:48:00,
2013-02-03 23:50:00,29.8,13.0,29.98,NW,324,0.0,7.0,49,0.00,,---,0.00,VWS V14.01,2013-02-04 04:50:00,
2013-02-03 23:53:00,31.7,13.3,29.97,West,264,2.0,9.0,46,0.00,,---,0.02,VWS V14.01,2013-02-04 04:53:00,
2013-02-03 23:58:00,31.7,13.3,29.97,WNW,299,6.0,12.0,46,0.00,,---,0.02,VWS V14.01,2013-02-04 04:58:00,